Time;durP1;ratioP1;P1;durP2;ratioP2;P2;SDS_P1;SDS_P2;PMS_P1;PMS_P2;Temp;Humidity;BMP_temperature;BMP_pressure;BME280_temperature;BME280_humidity;BME280_pressure;Samples;Min_cycle;Max_cycle;Signal;HPM_P1;HPM_P2
2023/01/18 00:02:21;;;;;;;0.73;0.50;;;;;;;0.01;87.86;99242.78;5053536;27;96713;-29
2023/01/18 00:04:46;;;;;;;1.67;0.88;;;;;;;0.01;87.90;99248.94;5052485;27;108353;-29
2023/01/18 00:07:11;;;;;;;0.30;0.30;;;;;;;-0.05;87.65;99235.91;5053248;27;103247;-29
2023/01/18 00:09:37;;;;;;;0.47;0.47;;;;;;;-0.04;87.58;99251.81;5053186;27;100371;-29
2023/01/18 00:12:02;;;;;;;1.45;0.95;;;;;;;-0.05;87.96;99250.09;5053139;27;96755;-29
2023/01/18 00:14:27;;;;;;;0.98;0.90;;;;;;;-0.11;87.85;99238.84;5052888;27;99753;-29
2023/01/18 00:16:53;;;;;;;3.22;0.30;;;;;;;-0.10;87.85;99249.41;5052953;27;100870;-29
2023/01/18 00:19:18;;;;;;;2.13;1.50;;;;;;;-0.12;87.85;99247.75;5053272;27;96749;-30
2023/01/18 00:21:43;;;;;;;0.10;0.10;;;;;;;-0.14;87.41;99245.16;5053423;27;96814;-28
2023/01/18 00:24:10;;;;;;;0.10;0.10;;;;;;;-0.17;87.71;99247.94;5052803;27;97872;-29
2023/01/18 00:26:36;;;;;;;0.47;0.17;;;;;;;-0.17;87.82;99247.94;5051218;27;101329;-29
2023/01/18 00:29:03;;;;;;;0.30;0.30;;;;;;;-0.20;87.70;99245.44;5052008;27;96776;-29
2023/01/18 00:31:29;;;;;;;0.43;0.43;;;;;;;-0.18;87.88;99253.34;5053114;27;96741;-30
2023/01/18 00:33:54;;;;;;;0.55;0.40;;;;;;;-0.19;87.72;99248.94;5052963;27;97870;-29
2023/01/18 00:36:20;;;;;;;0.50;0.47;;;;;;;-0.21;87.58;99249.03;5052994;27;97759;-28
2023/01/18 00:38:52;;;;;;;1.25;1.05;;;;;;;-0.19;87.53;99256.94;5051606;27;96820;-29
2023/01/18 00:41:19;;;;;;;1.00;0.88;;;;;;;-0.24;87.38;99252.69;5052531;27;96711;-29
2023/01/18 00:43:45;;;;;;;0.60;0.28;;;;;;;-0.25;87.49;99252.75;5051297;27;101116;-29
2023/01/18 00:46:13;;;;;;;0.52;0.50;;;;;;;-0.26;87.90;99245.72;5053054;27;97796;-29
2023/01/18 00:48:40;;;;;;;0.52;0.40;;;;;;;-0.26;87.91;99251.88;5051186;27;96464;-29
2023/01/18 00:51:12;;;;;;;0.40;0.40;;;;;;;-0.26;87.88;99257.22;5051369;27;96784;-29
2023/01/18 00:53:38;;;;;;;0.15;0.15;;;;;;;-0.29;87.97;99252.00;5050526;27;99136;-29
2023/01/18 00:56:05;;;;;;;0.35;0.35;;;;;;;-0.29;87.53;99251.13;5052635;27;97812;-29
2023/01/18 00:58:31;;;;;;;0.30;0.15;;;;;;;-0.31;87.89;99264.53;5052595;27;96657;-29
2023/01/18 01:00:56;;;;;;;0.43;0.43;;;;;;;-0.29;87.56;99272.41;5052804;27;96695;-29
2023/01/18 01:03:22;;;;;;;0.40;0.17;;;;;;;-0.31;87.58;99269.84;5052574;27;97411;-29
2023/01/18 01:08:32;;;;;;;0.88;0.77;;;;;;;-0.34;87.77;99267.31;5052974;27;96563;-29
2023/01/18 01:11:09;;;;;;;2.58;0.50;;;;;;;-0.34;87.53;99269.97;5051490;27;96820;-29
2023/01/18 01:27:16;;;;;;;0.57;0.57;;;;;;;-0.43;88.00;99281.88;5052316;27;97026;-29
2023/01/18 01:29:42;;;;;;;0.65;0.65;;;;;;;-0.44;87.89;99282.78;5050153;27;96888;-29
2023/01/18 01:32:08;;;;;;;0.30;0.30;;;;;;;-0.45;87.54;99286.38;5050620;27;96994;-29
2023/01/18 01:34:33;;;;;;;0.88;0.85;;;;;;;-0.45;87.65;99283.72;5052142;27;97928;-29
2023/01/18 01:36:59;;;;;;;1.85;1.48;;;;;;;-0.48;88.08;99282.97;5052457;27;97821;-29
2023/01/18 01:39:24;;;;;;;0.40;0.40;;;;;;;-0.49;88.13;99283.91;5051842;27;96539;-29
2023/01/18 01:41:50;;;;;;;0.95;0.75;;;;;;;-0.48;88.19;99280.31;5052074;27;96723;-29
2023/01/18 01:44:18;;;;;;;0.03;0.03;;;;;;;-0.49;88.36;99284.78;5051544;27;97911;-28
2023/01/18 01:46:50;;;;;;;1.08;0.98;;;;;;;-0.51;88.14;99281.31;5050141;27;100830;-29
2023/01/18 01:49:23;;;;;;;1.50;1.10;;;;;;;-0.52;88.77;99289.38;5050542;27;96873;-31
2023/01/18 01:51:57;;;;;;;0.50;0.45;;;;;;;-0.52;88.53;99282.25;5051698;27;96603;-29
2023/01/18 01:54:29;;;;;;;0.15;0.13;;;;;;;-0.54;88.65;99291.22;5052776;27;100939;-28
2023/01/18 01:57:06;;;;;;;0.05;0.03;;;;;;;-0.54;88.24;99291.22;5055673;27;97326;-29
2023/01/18 01:59:38;;;;;;;2.60;1.08;;;;;;;-0.52;88.14;99295.53;5053990;27;96695;-29
2023/01/18 02:02:04;;;;;;;0.10;0.10;;;;;;;-0.52;88.16;99300.00;5054312;27;98937;-28
2023/01/18 02:04:30;;;;;;;0.43;0.40;;;;;;;-0.52;88.28;99295.53;5053412;27;101051;-29
2023/01/18 02:06:55;;;;;;;0.50;0.50;;;;;;;-0.53;88.08;99299.13;5055128;27;97820;-29
2023/01/18 02:09:22;;;;;;;0.40;0.35;;;;;;;-0.51;88.22;99296.41;5054650;27;99967;-29
2023/01/18 02:11:50;;;;;;;1.35;0.82;;;;;;;-0.51;88.28;99302.59;5053992;27;96812;-29
2023/01/18 02:14:17;;;;;;;0.05;0.05;;;;;;;-0.51;87.99;99299.06;5054907;27;97342;-28
2023/01/18 02:17:01;;;;;;;0.32;0.32;;;;;;;-0.51;88.08;99297.25;5053566;27;100513;-29
2023/01/18 02:19:59;;;;;;;0.75;0.43;;;;;;;-0.52;88.07;99297.34;5055008;27;96640;-31
2023/01/18 02:23:01;;;;;;;0.05;0.05;;;;;;;-0.53;88.05;99300.91;5054753;27;96648;-29
2023/01/18 02:26:12;;;;;;;0.43;0.32;;;;;;;-0.49;88.39;99306.06;5055069;27;98041;-30
2023/01/18 02:28:40;;;;;;;1.30;0.57;;;;;;;-0.52;88.03;99303.53;5055314;27;98039;-29
2023/01/18 02:31:12;;;;;;;0.77;0.52;;;;;;;-0.49;87.95;99308.72;5053096;27;96958;-29
2023/01/18 02:34:04;;;;;;;0.38;0.30;;;;;;;-0.48;87.90;99314.88;5054263;27;96649;-28
2023/01/18 02:37:03;;;;;;;0.93;0.63;;;;;;;-0.51;87.65;99312.38;5015004;27;100921;-30
2023/01/18 02:39:40;;;;;;;0.32;0.25;;;;;;;-0.53;87.97;99307.09;5053229;27;101157;-29
2023/01/18 02:48:09;;;;;;;0.25;0.25;;;;;;;-0.54;88.32;99321.34;5054582;27;96980;-29
2023/01/18 02:50:35;;;;;;;0.45;0.20;;;;;;;-0.54;88.22;99316.00;5052864;27;101077;-29
2023/01/18 02:53:00;;;;;;;0.47;0.32;;;;;;;-0.54;88.06;99316.00;5054584;27;96548;-29
2023/01/18 02:55:47;;;;;;;0.00;0.00;;;;;;;-0.53;88.12;99319.53;5054840;27;96733;-29
2023/01/18 02:58:25;;;;;;;0.40;0.40;;;;;;;-0.55;88.29;99321.38;5054353;27;97983;-29
2023/01/18 03:01:11;;;;;;;1.88;0.90;;;;;;;-0.55;88.39;99327.59;5052748;27;101501;-28
2023/01/18 03:03:40;;;;;;;0.75;0.52;;;;;;;-0.54;88.29;99325.78;5054044;27;96561;-28
2023/01/18 03:06:07;;;;;;;0.65;0.65;;;;;;;-0.53;88.20;99322.19;5053146;27;96800;-29
2023/01/18 03:08:44;;;;;;;0.40;0.40;;;;;;;-0.51;88.51;99320.34;5052788;27;100812;-29
2023/01/18 03:11:18;;;;;;;0.63;0.47;;;;;;;-0.51;88.43;99317.69;5052466;27;101167;-30
2023/01/18 03:14:00;;;;;;;2.70;0.30;;;;;;;-0.51;88.22;99317.69;5054445;27;96626;-29
2023/01/18 03:16:38;;;;;;;;;;;;;;;-0.50;88.36;99322.94;5053214;27;96709;-30
2023/01/18 03:21:59;;;;;;;1.45;0.65;;;;;;;-0.54;88.19;99316.00;5054428;27;97043;-29
2023/01/18 03:24:27;;;;;;;0.17;0.17;;;;;;;-0.52;88.26;99319.47;5052695;27;96685;-29
2023/01/18 03:35:17;;;;;;;0.20;0.20;;;;;;;-0.55;88.18;99319.63;5054177;27;96530;-28
2023/01/18 03:37:45;;;;;;;0.50;0.40;;;;;;;-0.55;88.17;99327.59;5052377;27;96598;-31
2023/01/18 03:40:18;;;;;;;0.22;0.05;;;;;;;-0.55;88.11;99332.03;5052215;27;101215;-30
2023/01/18 03:42:53;;;;;;;0.22;0.20;;;;;;;-0.55;88.26;99338.22;5052151;27;100763;-29
2023/01/18 03:45:26;;;;;;;1.05;0.50;;;;;;;-0.56;88.29;99339.13;5052215;27;96662;-28
2023/01/18 03:47:52;;;;;;;0.40;0.40;;;;;;;-0.57;88.07;99342.75;5052440;27;96695;-29
2023/01/18 03:50:22;;;;;;;0.15;0.15;;;;;;;-0.59;88.11;99339.28;5053612;27;97808;-29
2023/01/18 03:52:52;;;;;;;0.35;0.35;;;;;;;-0.60;88.38;99337.53;5053388;27;97277;-29
2023/01/18 03:55:33;;;;;;;0.43;0.30;;;;;;;-0.58;88.36;99342.78;5051596;27;97343;-29
2023/01/18 03:58:09;;;;;;;0.98;0.28;;;;;;;-0.60;88.27;99342.84;5052063;27;97194;-29
2023/01/18 04:00:36;;;;;;;0.65;0.65;;;;;;;-0.59;88.23;99351.72;5051838;27;100852;-29
2023/01/18 04:03:02;;;;;;;0.55;0.55;;;;;;;-0.56;88.27;99349.78;5051870;27;101245;-29
2023/01/18 04:05:28;;;;;;;0.82;0.52;;;;;;;-0.58;88.46;99351.63;5052024;27;96566;-29
2023/01/18 04:07:53;;;;;;;0.08;0.08;;;;;;;-0.58;88.52;99348.97;5051870;27;96767;-29
2023/01/18 04:10:18;;;;;;;0.25;0.20;;;;;;;-0.54;88.13;99361.22;5053318;27;98849;-29
2023/01/18 04:12:44;;;;;;;0.17;0.17;;;;;;;-0.55;88.41;99356.84;5053511;27;97335;-30
2023/01/18 04:15:09;;;;;;;2.05;0.65;;;;;;;-0.53;88.05;99354.09;5053421;27;96611;-29
2023/01/18 04:17:35;;;;;;;1.30;0.32;;;;;;;-0.53;88.29;99348.78;5052776;27;96765;-29
2023/01/18 04:20:00;;;;;;;0.30;0.30;;;;;;;-0.52;88.17;99354.06;5052479;27;97896;-29
2023/01/18 04:22:25;;;;;;;0.00;0.00;;;;;;;-0.53;88.33;99349.66;5052853;27;97378;-28
2023/01/18 04:24:51;;;;;;;0.68;0.30;;;;;;;-0.48;88.18;99361.00;5052953;27;96580;-29
2023/01/18 04:27:17;;;;;;;0.45;0.43;;;;;;;-0.49;88.23;99355.72;5051587;27;96682;-29
2023/01/18 04:29:43;;;;;;;0.17;0.17;;;;;;;-0.50;88.29;99338.00;5050835;27;101342;-29
2023/01/18 04:32:08;;;;;;;0.00;0.00;;;;;;;-0.48;88.09;99355.66;5052602;27;105145;-29
2023/01/18 04:34:33;;;;;;;0.47;0.20;;;;;;;-0.51;88.30;99355.78;5052737;27;96702;-29
2023/01/18 04:36:59;;;;;;;0.20;0.20;;;;;;;-0.51;88.13;99353.09;5053676;27;96749;-29
2023/01/18 04:39:24;;;;;;;0.40;0.20;;;;;;;-0.52;88.19;99356.72;5052877;27;97354;-29
2023/01/18 04:41:49;;;;;;;0.25;0.25;;;;;;;-0.53;88.37;99365.59;5052915;27;98204;-28
2023/01/18 04:44:15;;;;;;;0.52;0.43;;;;;;;-0.51;88.33;99371.72;5052568;27;96664;-30
2023/01/18 04:46:41;;;;;;;0.20;0.20;;;;;;;-0.52;88.17;99375.31;5052373;27;96605;-28
2023/01/18 04:49:10;;;;;;;0.43;0.43;;;;;;;-0.50;88.12;99381.47;5052484;27;97899;-29
2023/01/18 04:51:37;;;;;;;0.52;0.45;;;;;;;-0.50;88.06;99372.59;5051078;27;100880;-29
2023/01/18 04:54:03;;;;;;;0.03;0.03;;;;;;;-0.45;88.19;99381.28;5051086;27;96651;-29
2023/01/18 04:56:29;;;;;;;0.43;0.43;;;;;;;-0.45;88.17;99367.97;5052544;27;96783;-29
2023/01/18 04:58:54;;;;;;;0.00;0.00;;;;;;;-0.38;88.56;99382.75;5052486;27;97378;-29
2023/01/18 05:01:20;;;;;;;0.73;0.55;;;;;;;-0.39;88.75;99377.50;5052841;27;97808;-29
2023/01/18 05:03:46;;;;;;;0.15;0.15;;;;;;;-0.35;88.61;99382.63;5050981;27;96553;-29
2023/01/18 05:06:14;;;;;;;0.08;0.08;;;;;;;-0.30;88.69;99387.75;5052635;27;96747;-29
2023/01/18 05:08:40;;;;;;;0.40;0.25;;;;;;;-0.27;88.78;99383.16;5051907;27;97887;-29
2023/01/18 05:11:08;;;;;;;0.60;0.52;;;;;;;-0.25;88.54;99372.47;5052474;27;97858;-29
2023/01/18 05:13:33;;;;;;;0.35;0.32;;;;;;;-0.22;88.80;99383.84;5052425;27;96530;-30
2023/01/18 05:16:00;;;;;;;0.00;0.00;;;;;;;-0.19;88.54;99382.88;5052256;27;96720;-29
2023/01/18 05:18:27;;;;;;;1.13;0.75;;;;;;;-0.19;88.45;99392.63;5050836;27;100954;-29
2023/01/18 05:20:52;;;;;;;0.43;0.38;;;;;;;-0.20;88.65;99378.47;5052310;27;97339;-30
2023/01/18 05:23:17;;;;;;;0.00;0.00;;;;;;;-0.16;88.75;99401.34;5052409;27;96465;-29
2023/01/18 05:25:43;;;;;;;0.05;0.03;;;;;;;-0.16;88.53;99390.72;5052469;27;96809;-29
2023/01/18 05:28:09;;;;;;;0.63;0.43;;;;;;;-0.16;88.41;99396.03;5052470;27;98414;-29
2023/01/18 05:30:40;;;;;;;0.50;0.50;;;;;;;-0.16;88.56;99406.69;5055516;27;97171;-30
2023/01/18 05:33:05;;;;;;;0.10;0.10;;;;;;;-0.17;88.51;99396.09;5053945;27;97119;-29
2023/01/18 05:35:31;;;;;;;0.50;0.50;;;;;;;-0.16;88.62;99409.34;5055937;27;96736;-29
2023/01/18 05:37:57;;;;;;;1.80;1.05;;;;;;;-0.17;88.29;99404.94;5054041;27;101181;-29
2023/01/18 05:40:22;;;;;;;0.30;0.22;;;;;;;-0.17;88.98;99409.41;5055421;27;99003;-29
2023/01/18 05:42:48;;;;;;;0.35;0.32;;;;;;;-0.20;88.87;99410.38;5055773;27;96460;-29
2023/01/18 05:45:13;;;;;;;0.25;0.15;;;;;;;-0.18;89.11;99416.53;5055098;27;96811;-30
2023/01/18 05:47:40;;;;;;;0.05;0.00;;;;;;;-0.16;89.25;99419.13;5054914;27;99227;-29
2023/01/18 05:50:06;;;;;;;0.20;0.20;;;;;;;-0.18;89.01;99413.00;5054197;27;100885;-29
2023/01/18 05:52:32;;;;;;;1.45;0.52;;;;;;;-0.17;88.75;99418.25;5054035;27;97584;-29
2023/01/18 05:54:57;;;;;;;0.20;0.20;;;;;;;-0.17;88.74;99425.34;5054046;27;96870;-29
2023/01/18 05:57:23;;;;;;;0.55;0.17;;;;;;;-0.17;88.99;99426.22;5054628;27;107715;-29
2023/01/18 05:59:48;;;;;;;0.17;0.17;;;;;;;-0.19;88.91;99420.13;5055037;27;99187;-29
2023/01/18 06:02:13;;;;;;;0.32;0.32;;;;;;;-0.19;89.01;99420.13;5055668;27;97346;-29
2023/01/18 06:04:39;;;;;;;0.40;0.30;;;;;;;-0.21;88.73;99414.00;5055544;27;96778;-29
2023/01/18 06:07:04;;;;;;;0.57;0.47;;;;;;;-0.22;88.79;99426.41;5055117;27;100553;-29
2023/01/18 06:09:29;;;;;;;0.05;0.05;;;;;;;-0.20;88.91;99434.34;5055150;27;97898;-29
2023/01/18 06:11:55;;;;;;;0.40;0.32;;;;;;;-0.22;89.10;99442.38;5054762;27;105556;-29
2023/01/18 06:14:21;;;;;;;1.50;0.75;;;;;;;-0.17;89.00;99444.00;5055541;27;96695;-28
2023/01/18 06:16:46;;;;;;;3.45;0.30;;;;;;;-0.19;89.04;99438.75;5054780;27;98915;-29
2023/01/18 06:19:11;;;;;;;0.13;0.13;;;;;;;-0.17;89.29;99444.84;5054873;27;98394;-29
2023/01/18 06:21:36;;;;;;;0.08;0.08;;;;;;;-0.17;89.06;99444.84;5054413;27;101245;-29
2023/01/18 06:24:02;;;;;;;0.25;0.20;;;;;;;-0.16;88.91;99448.41;5054583;27;96814;-30
2023/01/18 06:26:30;;;;;;;0.68;0.30;;;;;;;-0.19;88.75;99438.75;5054273;27;98094;-29
2023/01/18 06:28:56;;;;;;;0.10;0.10;;;;;;;-0.15;89.20;99442.13;5052703;27;100781;-29
2023/01/18 06:31:21;;;;;;;0.05;0.05;;;;;;;-0.17;89.20;99439.53;5053527;27;96591;-29
2023/01/18 06:33:47;;;;;;;0.50;0.50;;;;;;;-0.16;89.16;99443.94;5054875;27;96716;-29
2023/01/18 06:36:13;;;;;;;0.28;0.20;;;;;;;-0.14;89.50;99457.16;5054596;27;99856;-29
2023/01/18 06:38:38;;;;;;;0.20;0.10;;;;;;;-0.14;89.26;99452.72;5054825;27;98949;-30
2023/01/18 06:41:04;;;;;;;0.70;0.70;;;;;;;-0.09;89.10;99460.53;5053158;27;96908;-28
2023/01/18 06:43:29;;;;;;;0.35;0.35;;;;;;;-0.12;89.62;99463.28;5053192;27;96785;-29
2023/01/18 06:45:55;;;;;;;0.55;0.52;;;;;;;-0.10;89.58;99470.28;5052701;27;100832;-30
2023/01/18 06:48:22;;;;;;;0.20;0.08;;;;;;;-0.08;89.95;99470.22;5053955;27;97650;-34
2023/01/18 06:50:49;;;;;;;0.73;0.10;;;;;;;-0.07;89.52;99482.59;5050640;27;96773;-33
2023/01/18 06:53:14;;;;;;;0.70;0.55;;;;;;;-0.05;89.56;99484.28;5051839;27;97078;-29
2023/01/18 06:55:40;;;;;;;0.17;0.17;;;;;;;-0.04;90.17;99485.16;5051946;27;97519;-30
2023/01/18 06:58:05;;;;;;;1.50;0.77;;;;;;;-0.05;89.93;99486.06;5051566;27;99464;-30
2023/01/18 07:00:30;;;;;;;0.30;0.30;;;;;;;0.02;89.99;99486.69;5050683;27;96975;-29
2023/01/18 07:02:57;;;;;;;0.22;0.20;;;;;;;0.04;89.94;99490.16;5051610;27;97047;-36
2023/01/18 07:05:22;;;;;;;0.60;0.47;;;;;;;0.04;90.15;99491.03;5050087;27;98891;-32
2023/01/18 07:07:47;;;;;;;0.47;0.38;;;;;;;0.05;90.19;99495.44;5051728;27;97785;-29
2023/01/18 07:10:13;;;;;;;0.15;0.10;;;;;;;0.09;89.83;99501.50;5051115;27;97080;-30
2023/01/18 07:12:38;;;;;;;0.80;0.65;;;;;;;0.10;89.68;99500.56;5051585;27;96777;-29
2023/01/18 07:15:06;;;;;;;0.65;0.35;;;;;;;0.11;90.11;99503.16;5052893;27;97345;-29
2023/01/18 07:17:31;;;;;;;0.25;0.20;;;;;;;0.13;89.34;99509.28;5052648;27;98912;-29
2023/01/18 07:19:56;;;;;;;1.20;0.95;;;;;;;0.12;89.64;99506.69;5054124;27;96580;-28
2023/01/18 07:22:22;;;;;;;0.60;0.55;;;;;;;0.11;89.30;99508.47;5053943;27;97649;-29
2023/01/18 07:24:47;;;;;;;0.52;0.22;;;;;;;0.11;89.66;99510.28;5053687;27;99242;-29
2023/01/18 07:27:13;;;;;;;0.40;0.40;;;;;;;0.09;89.62;99514.78;5054197;27;97678;-29
2023/01/18 07:29:38;;;;;;;0.50;0.50;;;;;;;0.09;89.27;99514.78;5053104;27;101144;-29
2023/01/18 07:32:04;;;;;;;0.30;0.28;;;;;;;0.10;89.24;99512.09;5053865;27;96789;-29
2023/01/18 07:34:29;;;;;;;1.05;0.80;;;;;;;0.13;89.51;99524.41;5053382;27;97869;-29
2023/01/18 07:36:54;;;;;;;2.03;0.93;;;;;;;0.11;89.56;99520.94;5053852;27;97815;-29
2023/01/18 07:39:20;;;;;;;1.15;0.77;;;;;;;0.11;89.53;99524.44;5054109;27;96500;-31
2023/01/18 07:41:45;;;;;;;8.30;0.82;;;;;;;0.10;89.60;99529.84;5053981;27;96762;-28
2023/01/18 07:44:11;;;;;;;1.83;1.30;;;;;;;0.10;89.74;99527.19;5053372;27;98947;-30
2023/01/18 07:46:37;;;;;;;0.63;0.47;;;;;;;0.14;89.59;99539.44;5053612;27;98205;-29
2023/01/18 07:49:04;;;;;;;0.65;0.57;;;;;;;0.13;90.06;99540.38;5053301;27;96759;-29
2023/01/18 07:51:31;;;;;;;0.93;0.70;;;;;;;0.15;90.05;99542.03;5052984;27;96782;-29
2023/01/18 07:53:57;;;;;;;1.02;0.85;;;;;;;0.18;90.08;99549.03;5051902;27;99026;-29
2023/01/18 07:56:24;;;;;;;0.75;0.68;;;;;;;0.18;90.18;99546.38;5052926;27;99177;-30
2023/01/18 07:58:51;;;;;;;1.00;0.90;;;;;;;0.21;89.68;99546.25;5051641;27;97799;-29
2023/01/18 08:01:19;;;;;;;1.17;0.50;;;;;;;0.23;89.92;99547.06;5051986;27;97353;-29
2023/01/18 08:03:49;;;;;;;1.20;0.65;;;;;;;0.25;89.82;99555.00;5051941;27;101247;-29
2023/01/18 08:06:19;;;;;;;2.10;1.58;;;;;;;0.27;90.07;99555.81;5053215;27;99916;-30
2023/01/18 08:08:44;;;;;;;1.10;0.57;;;;;;;0.31;89.55;99560.94;5053350;27;96653;-28
2023/01/18 08:11:10;;;;;;;3.30;1.05;;;;;;;0.33;89.58;99569.72;5053023;27;96750;-29
2023/01/18 08:13:36;;;;;;;2.30;1.00;;;;;;;0.35;89.35;99570.53;5051637;27;100900;-29
2023/01/18 08:16:03;;;;;;;2.60;1.60;;;;;;;0.41;89.93;99575.63;5053645;27;97307;-31
2023/01/18 08:18:29;;;;;;;0.30;0.30;;;;;;;0.41;89.52;99572.94;5051848;27;96678;-29
2023/01/18 08:20:55;;;;;;;1.55;0.75;;;;;;;0.44;89.50;99579.94;5051694;27;96883;-29
2023/01/18 08:23:20;;;;;;;0.70;0.38;;;;;;;0.49;89.85;99587.75;5052045;27;99214;-29
2023/01/18 08:25:46;;;;;;;1.17;1.08;;;;;;;0.48;89.59;99581.56;5052998;27;97308;-29
2023/01/18 08:28:12;;;;;;;0.68;0.68;;;;;;;0.46;89.46;99579.91;5053104;27;96464;-31
2023/01/18 08:30:40;;;;;;;0.50;0.50;;;;;;;0.49;89.75;99583.28;5051174;27;96876;-29
2023/01/18 08:33:06;;;;;;;2.17;1.55;;;;;;;0.49;89.37;99585.09;5051256;27;100893;-29
2023/01/18 08:35:38;;;;;;;2.45;0.52;;;;;;;0.53;89.82;99581.38;5052912;27;97859;-30
2023/01/18 08:38:04;;;;;;;0.55;0.45;;;;;;;0.52;89.61;99584.97;5051459;27;96563;-29
2023/01/18 08:40:29;;;;;;;1.75;1.15;;;;;;;0.53;89.73;99592.03;5053222;27;96706;-29
2023/01/18 08:42:56;;;;;;;0.38;0.38;;;;;;;0.55;89.43;99593.72;5052481;27;99371;-29
2023/01/18 08:45:22;;;;;;;1.13;0.88;;;;;;;0.56;89.79;99598.09;5051467;27;100798;-29
2023/01/18 08:47:47;;;;;;;0.50;0.47;;;;;;;0.54;89.64;99597.28;5052075;27;96593;-29
2023/01/18 08:50:12;;;;;;;0.93;0.63;;;;;;;0.59;89.83;99599.75;5052768;27;96870;-29
2023/01/18 08:52:38;;;;;;;0.73;0.55;;;;;;;0.62;89.78;99602.28;5052580;27;97886;-29
2023/01/18 08:55:05;;;;;;;1.63;1.02;;;;;;;0.63;89.66;99604.91;5052317;27;107407;-29
2023/01/18 08:57:31;;;;;;;4.18;0.80;;;;;;;0.67;89.82;99611.00;5051275;27;97332;-30
2023/01/18 08:59:56;;;;;;;0.10;0.10;;;;;;;0.67;90.06;99605.66;5051306;27;96723;-28
2023/01/18 09:02:23;;;;;;;1.23;1.10;;;;;;;0.74;89.95;99607.16;5052489;27;97516;-28
2023/01/18 09:04:49;;;;;;;1.17;0.98;;;;;;;0.77;89.84;99616.81;5053109;27;97353;-29
2023/01/18 09:07:15;;;;;;;3.17;0.93;;;;;;;0.76;89.75;99613.28;5052497;27;96584;-29
2023/01/18 09:09:40;;;;;;;1.10;1.00;;;;;;;0.87;89.70;99622.63;5050965;27;96807;-30
2023/01/18 09:12:06;;;;;;;1.08;0.90;;;;;;;0.89;89.73;99626.09;5051576;27;99062;-29
2023/01/18 09:14:31;;;;;;;0.57;0.55;;;;;;;0.93;89.29;99622.34;5051965;27;98767;-29
2023/01/18 09:16:56;;;;;;;0.55;0.52;;;;;;;0.97;89.15;99629.28;5052400;27;96533;-29
2023/01/18 09:19:22;;;;;;;1.45;0.90;;;;;;;1.03;89.31;99629.03;5052328;27;98363;-29
2023/01/18 09:21:49;;;;;;;2.38;0.45;;;;;;;1.09;89.25;99625.25;5052321;27;97839;-29
2023/01/18 09:24:14;;;;;;;0.38;0.38;;;;;;;1.14;89.07;99634.78;5050697;27;100605;-28
2023/01/18 09:26:40;;;;;;;0.85;0.75;;;;;;;1.23;89.09;99646.84;5052397;27;96625;-29
2023/01/18 09:29:05;;;;;;;0.80;0.77;;;;;;;1.29;88.90;99638.59;5052233;27;96749;-29
2023/01/18 09:31:31;;;;;;;1.48;1.05;;;;;;;1.36;88.44;99636.50;5050823;27;101096;-29
2023/01/18 09:33:56;;;;;;;1.15;0.75;;;;;;;1.42;88.66;99641.59;5052007;27;97888;-29
2023/01/18 09:36:25;;;;;;;1.67;0.52;;;;;;;1.50;87.96;99647.44;5051817;27;96414;-29
2023/01/18 09:38:51;;;;;;;0.20;0.20;;;;;;;1.62;88.37;99644.28;5050623;27;96800;-29
2023/01/18 09:41:36;;;;;;;0.70;0.70;;;;;;;1.70;87.88;99650.13;5050541;27;101061;-29
2023/01/18 09:44:09;;;;;;;0.57;0.57;;;;;;;1.79;87.52;99643.50;5052208;27;97945;-29
2023/01/18 09:46:38;;;;;;;1.23;0.63;;;;;;;1.94;87.82;99659.78;5052335;27;96644;-29
2023/01/18 09:49:06;;;;;;;1.55;1.27;;;;;;;2.03;87.23;99649.53;5050368;27;96854;-29
2023/01/18 09:51:56;;;;;;;0.40;0.40;;;;;;;2.22;87.03;99646.03;5050397;27;99035;-29
2023/01/18 09:54:39;;;;;;;0.63;0.63;;;;;;;2.40;86.58;99646.94;5052176;27;97804;-29
2023/01/18 09:57:11;;;;;;;1.73;0.85;;;;;;;2.57;85.65;99655.00;5052128;27;96724;-30
2023/01/18 09:59:48;;;;;;;0.88;0.82;;;;;;;2.74;86.05;99638.16;5050416;27;96765;-29
2023/01/18 10:02:24;;;;;;;1.90;0.75;;;;;;;2.88;85.33;99646.38;5049753;27;100802;-29
2023/01/18 10:04:55;;;;;;;1.83;1.00;;;;;;;2.99;84.68;99653.88;5050359;27;100956;-30
2023/01/18 10:07:24;;;;;;;0.88;0.43;;;;;;;3.16;84.15;99653.03;5033591;27;96439;-29
2023/01/18 10:09:55;;;;;;;0.40;0.38;;;;;;;3.33;84.09;99649.50;5050263;27;96772;-31
2023/01/18 10:12:42;;;;;;;1.33;0.82;;;;;;;3.42;83.31;99645.50;5051539;27;97250;-29
2023/01/18 10:15:19;;;;;;;0.90;0.68;;;;;;;3.53;82.87;99641.31;5053334;27;99296;-29
2023/01/18 10:17:45;;;;;;;1.90;1.05;;;;;;;3.70;82.76;99635.06;5052592;27;96639;-31
2023/01/18 10:20:40;;;;;;;1.25;1.00;;;;;;;3.81;81.89;99632.69;5055500;27;97290;-29
2023/01/18 10:23:16;;;;;;;2.30;1.13;;;;;;;3.96;81.68;99640.84;5053809;27;97926;-29
2023/01/18 10:25:55;;;;;;;0.40;0.40;;;;;;;4.03;80.81;99644.94;5053495;27;101058;-29
2023/01/18 10:28:39;;;;;;;1.10;0.70;;;;;;;4.14;80.86;99638.97;5054615;27;96660;-29
2023/01/18 10:31:15;;;;;;;0.77;0.65;;;;;;;4.31;79.71;99648.75;5053345;27;98377;-29
2023/01/18 10:33:44;;;;;;;0.70;0.68;;;;;;;4.49;80.68;99652.25;5051080;27;101495;-29
2023/01/18 10:36:21;;;;;;;0.68;0.60;;;;;;;4.60;79.63;99650.72;5051023;27;100836;-32
2023/01/18 10:38:49;;;;;;;1.70;0.88;;;;;;;4.72;79.11;99650.94;5051358;27;97150;-29
2023/01/18 10:41:31;;;;;;;1.88;0.75;;;;;;;4.85;79.37;99649.31;5050959;27;96957;-30
2023/01/18 10:43:56;;;;;;;1.00;0.77;;;;;;;4.87;78.15;99652.75;5051178;27;99232;-29
2023/01/18 10:46:21;;;;;;;0.70;0.63;;;;;;;4.64;79.53;99660.28;5052873;27;97844;-29
2023/01/18 10:48:52;;;;;;;0.80;0.73;;;;;;;4.54;79.42;99655.53;5054149;27;96800;-28
2023/01/18 10:51:33;;;;;;;3.33;1.30;;;;;;;4.58;79.91;99665.16;5053122;27;96939;-29
2023/01/18 10:54:19;;;;;;;1.03;0.80;;;;;;;4.67;78.58;99667.28;5052447;27;100955;-29
2023/01/18 10:56:44;;;;;;;0.47;0.47;;;;;;;4.75;78.27;99659.69;5054292;27;99234;-29
2023/01/18 10:59:24;;;;;;;1.17;0.82;;;;;;;4.85;78.46;99657.34;5054526;27;96463;-29
2023/01/18 11:01:56;;;;;;;2.72;1.20;;;;;;;4.97;78.86;99658.47;5052966;27;96502;-29
2023/01/18 11:04:27;;;;;;;2.03;1.45;;;;;;;5.05;78.06;99659.75;5052960;27;101109;-29
2023/01/18 11:06:59;;;;;;;1.35;0.88;;;;;;;5.17;76.90;99660.84;5054469;27;97302;-29
2023/01/18 11:09:58;;;;;;;1.83;0.88;;;;;;;5.26;76.62;99660.31;5053001;27;96769;-29
2023/01/18 11:12:40;;;;;;;2.55;1.63;;;;;;;5.29;77.74;99665.50;5054606;27;96621;-29
2023/01/18 11:15:14;;;;;;;;;;;;;;;5.13;77.27;99670.03;5054442;27;99927;-29
2023/01/18 11:17:40;;;;;;;2.10;0.98;;;;;;;4.93;77.54;99670.31;5054398;27;97786;-29
2023/01/18 11:20:15;;;;;;;0.65;0.60;;;;;;;4.72;77.87;99673.28;5053713;27;96452;-31
2023/01/18 11:22:53;;;;;;;1.65;0.88;;;;;;;4.85;77.88;99676.13;5052490;27;96600;-29
2023/01/18 11:25:18;;;;;;;2.25;0.88;;;;;;;4.89;78.02;99664.28;5052154;27;101164;-28
2023/01/18 11:27:45;;;;;;;1.42;1.02;;;;;;;4.95;77.42;99669.28;5052963;27;99952;-29
2023/01/18 11:30:21;;;;;;;4.75;0.98;;;;;;;5.18;77.76;99678.69;5053435;27;96731;-30
2023/01/18 11:32:48;;;;;;;0.85;0.70;;;;;;;5.18;76.38;99675.16;5054287;27;96503;-29
2023/01/18 11:35:27;;;;;;;1.60;0.70;;;;;;;5.23;77.05;99686.47;5052279;27;100843;-29
2023/01/18 11:37:58;;;;;;;0.70;0.70;;;;;;;5.28;77.18;99685.25;5054452;27;97881;-29
2023/01/18 11:40:31;;;;;;;0.52;0.45;;;;;;;5.40;76.75;99682.81;5052481;27;96612;-29
2023/01/18 11:43:17;;;;;;;1.63;0.75;;;;;;;5.54;76.62;99681.00;5053753;27;96652;-29
2023/01/18 11:45:58;;;;;;;1.95;0.63;;;;;;;5.68;76.33;99680.19;5052966;27;99378;-31
2023/01/18 11:48:40;;;;;;;0.80;0.70;;;;;;;5.73;75.99;99682.59;5053451;27;97840;-30
2023/01/18 11:51:44;;;;;;;1.23;0.82;;;;;;;5.86;76.00;99688.09;5053638;27;96583;-29
2023/01/18 11:54:36;;;;;;;2.50;0.68;;;;;;;5.83;75.61;99686.44;5048015;27;96966;-29
2023/01/18 11:57:02;;;;;;;;;;;;;;;5.83;75.30;99685.59;5054352;27;97347;-29
2023/01/18 11:59:30;;;;;;;0.57;0.43;;;;;;;5.88;75.54;99680.81;5053654;27;97645;-29
2023/01/18 12:02:02;;;;;;;0.85;0.70;;;;;;;5.91;75.42;99688.66;5052031;27;96659;-29
2023/01/18 12:05:01;;;;;;;0.30;0.20;;;;;;;5.76;74.89;99690.47;5054139;27;96501;-29
2023/01/18 12:07:59;;;;;;;0.75;0.30;;;;;;;5.70;75.04;99678.28;5053581;27;97339;-29
2023/01/18 12:10:29;;;;;;;0.38;0.28;;;;;;;5.73;75.27;99680.78;5051855;27;100923;-29
2023/01/18 12:13:21;;;;;;;1.52;0.28;;;;;;;5.68;75.61;99673.97;5051026;27;97386;-29
2023/01/18 12:16:07;;;;;;;2.92;0.65;;;;;;;5.82;75.38;99686.56;5053562;27;96544;-29
2023/01/18 12:18:55;;;;;;;0.35;0.35;;;;;;;5.88;74.64;99686.19;5051795;27;101035;-30
2023/01/18 12:21:47;;;;;;;0.45;0.32;;;;;;;5.88;74.49;99686.19;5051641;27;101102;-29
2023/01/18 12:24:18;;;;;;;0.70;0.60;;;;;;;5.73;74.81;99674.53;5053170;27;96761;-29